createdAt,value
2022-07-27T00:04:43.464Z,16.46
2022-07-27T00:07:53.411Z,16.46
2022-07-27T00:12:12.774Z,16.46
2022-07-27T00:15:20.478Z,16.39
2022-07-27T00:19:38.805Z,16.38
2022-07-27T00:22:45.127Z,16.33
2022-07-27T00:25:53.638Z,16.32
2022-07-27T00:28:59.882Z,16.28
2022-07-27T00:32:12.318Z,16.25
2022-07-27T00:35:19.395Z,16.22
2022-07-27T00:38:25.408Z,16.24
2022-07-27T00:41:34.451Z,16.25
2022-07-27T00:44:39.812Z,16.24
2022-07-27T00:47:46.280Z,16.24
2022-07-27T00:50:52.005Z,16.23
2022-07-27T00:53:58.913Z,16.20
2022-07-27T00:57:07.462Z,16.14
2022-07-27T01:00:14.317Z,16.09
2022-07-27T01:03:19.672Z,16.06
2022-07-27T01:06:29.599Z,16.07
2022-07-27T01:09:51.709Z,16.07
2022-07-27T01:13:00.906Z,16.07
2022-07-27T01:16:09.056Z,16.05
2022-07-27T01:19:18.087Z,16.03
2022-07-27T01:22:26.281Z,15.98
2022-07-27T01:25:32.506Z,15.90
2022-07-27T01:28:37.843Z,15.86
2022-07-27T01:31:44.779Z,15.82
2022-07-27T01:34:50.415Z,15.82
2022-07-27T01:38:01.067Z,15.83
2022-07-27T01:41:07.348Z,15.81
2022-07-27T01:44:13.570Z,15.79
2022-07-27T01:47:19.766Z,15.74
2022-07-27T01:50:25.181Z,15.76
2022-07-27T01:53:34.485Z,15.78
2022-07-27T01:56:39.875Z,15.79
2022-07-27T01:59:46.346Z,15.75
2022-07-27T02:02:51.974Z,15.68
2022-07-27T02:05:58.426Z,15.64
2022-07-27T02:09:06.816Z,15.63
2022-07-27T02:12:28.783Z,15.55
2022-07-27T02:15:42.997Z,15.45
2022-07-27T02:18:51.060Z,15.44
2022-07-27T02:21:56.668Z,15.42
2022-07-27T02:25:06.460Z,15.40
2022-07-27T02:28:12.616Z,15.38
2022-07-27T02:31:19.058Z,15.35
2022-07-27T02:34:24.377Z,15.33
2022-07-27T02:37:30.873Z,15.33
2022-07-27T02:40:39.470Z,15.34
2022-07-27T02:43:45.663Z,15.29
2022-07-27T02:46:51.301Z,15.24
2022-07-27T02:49:57.741Z,15.21
2022-07-27T02:53:03.375Z,15.20
2022-07-27T02:56:12.520Z,15.19
2022-07-27T02:59:18.293Z,15.15
2022-07-27T03:02:24.529Z,15.13
2022-07-27T03:05:30.172Z,15.12
2022-07-27T03:08:36.526Z,15.11
2022-07-27T03:11:45.010Z,15.11
2022-07-27T03:14:51.311Z,15.10
2022-07-27T03:17:57.209Z,15.08
2022-07-27T03:21:04.127Z,15.09
2022-07-27T03:24:10.174Z,15.08
2022-07-27T03:27:19.282Z,15.10
2022-07-27T03:30:24.696Z,15.12
2022-07-27T03:33:30.997Z,15.16
2022-07-27T03:36:36.523Z,15.17
2022-07-27T03:39:43.026Z,15.21
2022-07-27T03:42:51.610Z,15.23
2022-07-27T03:45:57.903Z,15.28
2022-07-27T03:49:03.467Z,15.33
2022-07-27T03:52:21.255Z,15.38
2022-07-27T03:55:27.886Z,15.44
2022-07-27T03:58:37.908Z,15.50
2022-07-27T04:01:43.373Z,15.54
2022-07-27T04:04:49.904Z,15.59
2022-07-27T04:07:55.866Z,15.64
2022-07-27T04:11:03.080Z,15.67
2022-07-27T04:14:12.722Z,15.71
2022-07-27T04:17:54.169Z,15.76
2022-07-27T04:20:45.074Z,15.88
2022-07-27T04:23:51.540Z,16.01
2022-07-27T04:26:57.212Z,16.05
2022-07-27T04:30:09.722Z,16.10
2022-07-27T04:33:15.591Z,16.14
2022-07-27T04:36:21.990Z,16.17
2022-07-27T04:39:27.478Z,16.22
2022-07-27T04:42:33.822Z,16.29
2022-07-27T04:45:42.076Z,16.38
2022-07-27T04:48:49.062Z,16.48
2022-07-27T04:51:57.596Z,16.57
2022-07-27T04:55:03.816Z,16.67
2022-07-27T04:58:10.848Z,16.77
2022-07-27T05:01:19.972Z,16.83
2022-07-27T05:04:25.474Z,16.85
2022-07-27T05:07:32.075Z,16.93
2022-07-27T05:10:37.755Z,17.09
2022-07-27T05:13:44.753Z,17.26
2022-07-27T05:16:53.090Z,17.38
2022-07-27T05:19:59.420Z,17.60
2022-07-27T05:23:06.090Z,17.82
2022-07-27T05:26:12.543Z,18.01
2022-07-27T05:29:17.936Z,18.02
2022-07-27T05:32:27.128Z,18.11
2022-07-27T05:35:32.624Z,18.14
2022-07-27T05:38:41.274Z,18.27
2022-07-27T05:41:46.698Z,18.35
2022-07-27T05:44:58.049Z,18.50
2022-07-27T05:48:06.568Z,18.63
2022-07-27T05:51:12.812Z,18.69
2022-07-27T05:54:19.100Z,18.70
2022-07-27T05:57:25.368Z,18.63
2022-07-27T06:00:32.729Z,18.53
2022-07-27T06:03:43.257Z,18.37
2022-07-27T06:07:04.569Z,18.28
2022-07-27T06:10:11.827Z,18.27
2022-07-27T06:13:17.298Z,18.52
2022-07-27T06:16:23.635Z,18.71
2022-07-27T06:19:36.379Z,18.91
2022-07-27T06:22:50.631Z,19.14
2022-07-27T06:25:56.041Z,19.28
2022-07-27T06:29:09.962Z,19.45
2022-07-27T06:32:16.833Z,19.64
2022-07-27T06:36:33.939Z,19.86
2022-07-27T06:39:42.445Z,20.01
2022-07-27T06:47:33.743Z,20.27
2022-07-27T06:50:39.984Z,20.47
2022-07-27T06:53:46.184Z,20.59
2022-07-27T06:56:55.477Z,20.72
2022-07-27T07:00:00.981Z,20.92
2022-07-27T07:03:09.323Z,20.94
2022-07-27T07:06:15.098Z,20.99
2022-07-27T07:09:22.375Z,21.02
2022-07-27T07:12:32.465Z,21.12
2022-07-27T07:15:40.708Z,21.08
2022-07-27T07:18:51.795Z,20.98
2022-07-27T07:21:58.776Z,20.97
2022-07-27T07:25:04.234Z,20.95
2022-07-27T07:28:13.483Z,20.94
2022-07-27T07:31:20.622Z,20.95
2022-07-27T07:34:27.566Z,20.99
2022-07-27T07:37:33.828Z,21.04
2022-07-27T07:40:43.851Z,21.02
2022-07-27T07:43:53.565Z,21.07
2022-07-27T07:47:00.196Z,21.17
2022-07-27T07:50:09.966Z,21.32
2022-07-27T07:53:17.947Z,21.47
2022-07-27T07:56:23.659Z,21.57
2022-07-27T07:59:32.734Z,21.54
2022-07-27T08:02:46.531Z,21.66
2022-07-27T08:05:52.788Z,21.85
2022-07-27T08:08:58.679Z,21.82
2022-07-27T08:12:05.568Z,21.61
2022-07-27T08:15:15.087Z,21.75
2022-07-27T08:18:22.029Z,21.94
2022-07-27T08:21:29.135Z,21.81
2022-07-27T08:24:44.762Z,21.87
2022-07-27T08:27:50.133Z,21.99
2022-07-27T08:30:59.593Z,21.98
2022-07-27T08:34:06.170Z,21.94
2022-07-27T08:37:15.537Z,21.97
2022-07-27T08:40:41.388Z,22.04
2022-07-27T08:43:52.070Z,22.29
2022-07-27T08:47:01.133Z,22.55
2022-07-27T08:50:23.437Z,22.53
2022-07-27T08:53:52.181Z,22.50
2022-07-27T08:57:00.271Z,22.24
2022-07-27T09:00:08.023Z,22.01
2022-07-27T09:03:20.725Z,21.79
2022-07-27T09:06:43.848Z,21.62
2022-07-27T09:09:50.573Z,21.54
2022-07-27T09:12:56.042Z,21.68
2022-07-27T09:16:20.899Z,21.83
2022-07-27T09:19:29.287Z,22.02
2022-07-27T09:22:51.120Z,22.22
2022-07-27T09:26:29.608Z,22.40
2022-07-27T09:29:38.550Z,22.37
2022-07-27T09:32:55.644Z,22.35
2022-07-27T09:36:06.816Z,22.31
2022-07-27T09:39:12.262Z,22.33
2022-07-27T09:42:59.225Z,22.33
2022-07-27T09:45:51.473Z,22.55
2022-07-27T09:48:58.547Z,22.69
2022-07-27T09:52:07.395Z,22.81
2022-07-27T09:55:14.496Z,22.85
2022-07-27T09:58:20.023Z,22.97
2022-07-27T10:01:28.106Z,23.05
2022-07-27T10:04:36.821Z,23.02
2022-07-27T10:07:46.018Z,23.26
2022-07-27T10:10:52.077Z,23.48
2022-07-27T10:14:00.476Z,23.76
2022-07-27T10:17:12.953Z,23.81
2022-07-27T10:20:21.741Z,23.80
2022-07-27T10:23:35.973Z,23.83
2022-07-27T10:26:44.040Z,23.90
2022-07-27T10:29:50.880Z,24.12
2022-07-27T10:32:57.312Z,24.27
2022-07-27T10:36:04.437Z,24.30
2022-07-27T10:39:13.581Z,24.13
2022-07-27T10:42:35.493Z,24.19
2022-07-27T10:45:59.978Z,24.02
2022-07-27T10:49:21.729Z,23.86
2022-07-27T10:52:45.306Z,23.91
2022-07-27T11:00:17.807Z,23.46
2022-07-27T11:03:24.027Z,23.40
2022-07-27T11:06:48.134Z,23.37
2022-07-27T11:10:05.227Z,23.57
2022-07-27T11:13:10.938Z,23.40
2022-07-27T11:16:28.520Z,23.45
2022-07-27T11:19:33.997Z,23.62
2022-07-27T11:26:07.395Z,23.97
2022-07-27T11:29:16.047Z,24.17
2022-07-27T11:32:25.232Z,24.38
2022-07-27T11:35:31.472Z,24.40
2022-07-27T11:38:48.853Z,24.42
2022-07-27T11:42:11.883Z,24.46
2022-07-27T11:45:31.787Z,24.53
2022-07-27T11:49:05.087Z,24.65
2022-07-27T11:52:09.678Z,24.84
2022-07-27T11:55:15.968Z,24.88
2022-07-27T11:58:21.267Z,24.95
2022-07-27T12:01:32.443Z,25.09
2022-07-27T12:04:42.148Z,25.13
2022-07-27T12:07:48.474Z,25.23
2022-07-27T12:11:01.190Z,25.24
2022-07-27T12:14:15.219Z,25.28
2022-07-27T12:17:31.848Z,25.33
2022-07-27T12:20:40.927Z,25.20
2022-07-27T12:23:52.898Z,25.14
2022-07-27T12:27:07.341Z,25.19
2022-07-27T12:30:15.694Z,25.25
2022-07-27T12:33:30.039Z,25.29
2022-07-27T12:36:44.575Z,25.17
2022-07-27T12:39:53.397Z,25.01
2022-07-27T12:43:00.762Z,25.14
2022-07-27T12:46:15.848Z,25.00
2022-07-27T12:49:21.332Z,24.69
2022-07-27T12:52:30.665Z,24.66
2022-07-27T12:55:36.252Z,24.58
2022-07-27T12:58:42.584Z,24.44
2022-07-27T13:01:48.276Z,24.30
2022-07-27T13:04:55.161Z,24.16
2022-07-27T13:08:03.586Z,24.21
2022-07-27T13:11:10.112Z,24.26
2022-07-27T13:14:19.412Z,24.31
2022-07-27T13:17:25.827Z,24.26
2022-07-27T13:20:31.428Z,24.33
2022-07-27T13:23:40.583Z,24.37
2022-07-27T13:26:45.943Z,24.43
2022-07-27T13:29:52.154Z,24.57
2022-07-27T13:32:57.796Z,24.75
2022-07-27T13:36:05.355Z,25.04
2022-07-27T13:39:15.567Z,25.05
2022-07-27T13:42:22.032Z,25.02
2022-07-27T13:45:28.309Z,25.13
2022-07-27T13:48:48.511Z,25.26
2022-07-27T13:51:54.001Z,25.34
2022-07-27T13:55:03.088Z,25.40
2022-07-27T13:58:14.133Z,25.31
2022-07-27T14:01:20.400Z,25.34
2022-07-27T14:04:28.556Z,25.38
2022-07-27T14:07:35.055Z,25.28
2022-07-27T14:10:48.347Z,25.19
2022-07-27T14:13:57.886Z,25.09
2022-07-27T14:17:03.375Z,25.10
2022-07-27T14:20:15.195Z,25.13
2022-07-27T14:23:20.598Z,25.39
2022-07-27T14:26:29.618Z,25.56
2022-07-27T14:29:34.976Z,25.84
2022-07-27T14:32:41.176Z,26.07
2022-07-27T14:35:47.437Z,26.27
2022-07-27T14:38:53.755Z,26.36
2022-07-27T14:42:03.621Z,26.55
2022-07-27T14:45:11.823Z,26.69
2022-07-27T14:48:25.293Z,26.77
2022-07-27T14:51:34.614Z,26.75
2022-07-27T14:54:39.968Z,26.76
2022-07-27T14:57:49.351Z,26.79
2022-07-27T15:00:55.666Z,26.75
2022-07-27T15:04:03.300Z,26.68
2022-07-27T15:07:09.062Z,26.45
2022-07-27T15:10:15.626Z,26.25
2022-07-27T15:13:23.854Z,26.00
2022-07-27T15:16:31.346Z,25.87
2022-07-27T15:19:36.833Z,25.87
2022-07-27T15:22:43.394Z,25.97
2022-07-27T15:25:49.075Z,26.43
2022-07-27T15:28:58.364Z,26.70
2022-07-27T15:32:03.971Z,27.35
2022-07-27T15:35:10.837Z,28.09
2022-07-27T15:38:16.192Z,28.69
2022-07-27T15:41:22.475Z,29.27
2022-07-27T15:44:30.780Z,29.95
2022-07-27T15:47:37.594Z,29.94
2022-07-27T15:50:48.757Z,30.03
2022-07-27T15:53:56.145Z,29.22
2022-07-27T15:57:03.131Z,28.94
2022-07-27T16:00:14.052Z,28.97
2022-07-27T16:03:21.722Z,28.91
2022-07-27T16:06:28.079Z,28.53
2022-07-27T16:09:33.525Z,27.86
2022-07-27T16:12:39.924Z,27.00
2022-07-27T16:16:18.632Z,26.54
2022-07-27T16:19:24.922Z,26.07
2022-07-27T16:22:32.137Z,25.65
2022-07-27T16:26:02.019Z,25.28
2022-07-27T16:29:03.944Z,24.99
2022-07-27T16:32:13.274Z,24.84
2022-07-27T16:35:18.634Z,24.92
2022-07-27T16:38:25.836Z,24.80
2022-07-27T16:41:31.301Z,24.49
2022-07-27T16:44:39.945Z,24.25
2022-07-27T16:47:48.282Z,24.05
2022-07-27T16:50:54.548Z,23.90
2022-07-27T16:54:00.016Z,23.78
2022-07-27T16:57:08.195Z,23.62
2022-07-27T17:00:14.477Z,23.55
2022-07-27T17:03:24.619Z,23.41
2022-07-27T17:06:32.038Z,23.23
2022-07-27T17:09:38.300Z,23.04
2022-07-27T17:12:43.932Z,22.94
2022-07-27T17:15:55.024Z,23.01
2022-07-27T17:19:03.232Z,23.07
2022-07-27T17:22:09.743Z,23.05
2022-07-27T17:25:15.221Z,22.94
2022-07-27T17:28:21.469Z,22.76
2022-07-27T17:31:26.943Z,22.54
2022-07-27T17:34:36.005Z,22.40
2022-07-27T17:38:04.445Z,22.28
2022-07-27T17:41:08.000Z,22.16
2022-07-27T17:44:13.378Z,22.05
2022-07-27T17:47:19.646Z,21.93
2022-07-27T17:50:27.909Z,21.80
2022-07-27T17:53:34.194Z,21.68
2022-07-27T17:59:46.623Z,21.59
2022-07-27T18:02:52.625Z,21.52
2022-07-27T18:06:03.393Z,21.41
2022-07-27T18:09:09.208Z,21.30
2022-07-27T18:12:21.591Z,21.25
2022-07-27T18:15:42.832Z,21.25
2022-07-27T18:18:49.071Z,21.22
2022-07-27T18:21:57.537Z,21.21
2022-07-27T18:25:03.789Z,21.24
2022-07-27T18:28:09.205Z,21.22
2022-07-27T18:31:18.331Z,21.21
2022-07-27T18:34:23.757Z,21.15
2022-07-27T18:37:32.840Z,21.11
2022-07-27T18:40:38.316Z,21.10
2022-07-27T18:43:51.177Z,21.10
2022-07-27T18:46:56.631Z,21.04
2022-07-27T18:50:03.223Z,21.08
2022-07-27T18:53:12.065Z,21.03
2022-07-27T18:56:18.497Z,20.94
2022-07-27T18:59:24.004Z,20.89
2022-07-27T19:02:35.835Z,20.86
2022-07-27T19:05:45.048Z,20.84
2022-07-27T19:08:54.953Z,20.86
2022-07-27T19:12:01.835Z,20.82
2022-07-27T19:15:11.160Z,20.79
2022-07-27T19:18:16.551Z,20.70
2022-07-27T19:21:23.249Z,20.63
2022-07-27T19:24:32.022Z,20.59
2022-07-27T19:27:38.536Z,20.52
2022-07-27T19:30:44.332Z,20.47
2022-07-27T19:33:51.267Z,20.45
2022-07-27T19:36:57.127Z,20.44
2022-07-27T19:40:33.727Z,20.45
2022-07-27T19:43:33.768Z,20.39
2022-07-27T19:46:41.347Z,20.35
2022-07-27T19:49:46.759Z,20.29
2022-07-27T19:52:53.285Z,20.21
2022-07-27T19:56:03.045Z,20.11
2022-07-27T19:59:10.002Z,20.01
2022-07-27T20:02:16.910Z,19.93
2022-07-27T20:05:23.292Z,19.85
2022-07-27T20:08:29.803Z,19.85
2022-07-27T20:11:39.323Z,19.79
2022-07-27T20:14:44.758Z,19.69
2022-07-27T20:17:51.166Z,19.56
2022-07-27T20:20:57.141Z,19.46
2022-07-27T20:24:04.606Z,19.38
2022-07-27T20:27:13.245Z,19.25
2022-07-27T20:30:21.231Z,19.15
2022-07-27T20:33:31.070Z,19.08
2022-07-27T20:36:38.984Z,19.00
2022-07-27T20:39:44.663Z,18.99
2022-07-27T20:42:53.690Z,18.98
2022-07-27T20:45:59.510Z,18.93
2022-07-27T20:49:08.222Z,18.93
2022-07-27T20:52:13.642Z,18.95
2022-07-27T20:55:19.928Z,18.94
2022-07-27T20:58:28.084Z,18.94
2022-07-27T21:01:34.447Z,18.89
2022-07-27T21:04:40.224Z,18.83
2022-07-27T21:07:46.860Z,18.79
2022-07-27T21:10:52.535Z,18.82
2022-07-27T21:14:03.040Z,18.84
2022-07-27T21:17:08.417Z,18.83
2022-07-27T21:20:15.779Z,18.81
2022-07-27T21:23:37.082Z,18.76
2022-07-27T21:26:43.417Z,18.69
2022-07-27T21:29:52.087Z,18.67
2022-07-27T21:32:58.341Z,18.64
2022-07-27T21:36:04.070Z,18.56
2022-07-27T21:39:10.692Z,18.49
2022-07-27T21:42:17.282Z,18.42
2022-07-27T21:45:26.802Z,18.35
2022-07-27T21:48:32.442Z,18.36
2022-07-27T21:51:39.288Z,18.38
2022-07-27T21:54:44.958Z,18.36
2022-07-27T21:57:51.497Z,18.36
2022-07-27T22:01:00.044Z,18.38
2022-07-27T22:04:08.665Z,18.33
2022-07-27T22:07:19.399Z,18.34
2022-07-27T22:10:25.955Z,18.34
2022-07-27T22:13:31.684Z,18.35
2022-07-27T22:16:41.408Z,18.42
2022-07-27T22:19:47.017Z,18.35
2022-07-27T22:22:53.954Z,18.33
2022-07-27T22:25:59.862Z,18.29
2022-07-27T22:29:08.560Z,18.27
2022-07-27T22:32:16.818Z,18.22
2022-07-27T22:35:23.122Z,18.14
2022-07-27T22:38:28.501Z,18.22
2022-07-27T22:41:34.749Z,18.15
2022-07-27T22:44:42.647Z,18.09
2022-07-27T22:47:51.766Z,18.03
2022-07-27T22:50:57.267Z,17.98
2022-07-27T22:54:03.765Z,17.95
2022-07-27T22:57:09.907Z,17.95
2022-07-27T23:00:18.781Z,17.96
2022-07-27T23:03:27.288Z,17.97
2022-07-27T23:06:33.548Z,17.93
2022-07-27T23:09:38.931Z,17.91
2022-07-27T23:12:45.432Z,17.86
2022-07-27T23:15:51.116Z,17.78
2022-07-27T23:19:00.188Z,17.75
2022-07-27T23:22:07.322Z,17.70
2022-07-27T23:25:17.918Z,17.69
2022-07-27T23:28:27.400Z,17.71
2022-07-27T23:31:33.803Z,17.70
2022-07-27T23:34:42.311Z,17.71
2022-07-27T23:37:48.531Z,17.68
2022-07-27T23:40:54.329Z,17.65
2022-07-27T23:44:00.715Z,17.61
2022-07-27T23:47:07.545Z,17.59
2022-07-27T23:50:18.053Z,17.59
2022-07-27T23:53:24.118Z,17.52
2022-07-27T23:56:30.592Z,17.49
2022-07-27T23:59:35.956Z,17.46
